Strona główna
METAR-TAF:

METAR-TAF

Lotnisko :

Port lotniczy Teesside

Durham, Anglia

Szerokość geograficzna: 54-31N, Długość geograficzna: 001-25W, wysokość: 37 m

Aktualna obserwacja pogody

Raport powstał 8 godziny i 37 minut temu, godzina 16:50 UTC
Wiatr 12 kt od zachodnio-południowy zachód
Temperatura 9°C
Wilgotność 66%
Ciśnienie 1015 hPa
Widzialność 10 km lub więcej
Mało chmury na wysokości 2800 ft

METAR: EGNV 031650Z 25012KT 9999 FEW028 09/03 Q1015

czas: 02:27 (01:27 UTC)

Prognoza

Raport powstał 11 godziny i 23 minut temu, godzina 14:04 UTC
Prognoza ważna od 03 godzina 15 UTC do 03 godzina 18 UTC
Wiatr 9 kt od zachodnio-południowy zachód
Widzialność 10 km lub więcej
Rozproszone chmury na wysokości 4500 ft
Prawdopodobieństwo 30% :
Przejściowo
od 03 godzina 15 UTC do 03 godzina 18 UTC
Widzialność: 8000 m
słaby przelotny opad deszczu

TAF: EGNV 031404Z 0315/0318 24009KT 9999 SCT045 PROB30 TEMPO 0315/0318 8000 -SHRA

Obserwacja i prognoza pogody dla ponad 4000 lotnisk (raport METAR i TAF).

Dostępne stacje oznaczono żółtymi i czerwonymi punktami na mapie.

Najedź kursorem aby zobaczyć nazwę stacji.

Kliknij aby zobaczyć obserwacje i prognozy pogody.

Aby zmienić mapę: kliknij na zielony przycisk z czarnym krzyżykiem, aby powiększyć; na zielony przycisk z myślnikiem, aby pomniejszyć; na zielone strzałki, aby przejść do map sąsiednich.


METAR-TAF: